createdAt,value
2023-08-17T00:02:14.375Z,91580.72
2023-08-17T00:04:41.860Z,91571.91
2023-08-17T00:07:08.565Z,91566.56
2023-08-17T00:09:35.512Z,91573.19
2023-08-17T00:12:02.330Z,91560.72
2023-08-17T00:14:29.741Z,91567.88
2023-08-17T00:16:56.467Z,91566.09
2023-08-17T00:19:23.346Z,91566.16
2023-08-17T00:21:53.829Z,91562.97
2023-08-17T00:24:20.512Z,91565.28
2023-08-17T00:26:47.319Z,91563.75
2023-08-17T00:29:16.187Z,91560.44
2023-08-17T00:31:43.041Z,91549.53
2023-08-17T00:34:09.845Z,91547.72
2023-08-17T00:36:37.165Z,91550.66
2023-08-17T00:39:03.980Z,91559.09
2023-08-17T00:41:31.531Z,91563.94
2023-08-17T00:43:58.278Z,91560.38
2023-08-17T00:46:25.585Z,91555.94
2023-08-17T00:48:52.429Z,91557.38
2023-08-17T00:51:21.603Z,91562.91
2023-08-17T00:53:48.339Z,91560.31
2023-08-17T00:56:15.109Z,91553.44
2023-08-17T00:58:43.517Z,91550.75
2023-08-17T01:01:10.566Z,91547.34
2023-08-17T01:03:37.587Z,91552.19
2023-08-17T01:06:04.639Z,91538.66
2023-08-17T01:08:31.724Z,91547.25
2023-08-17T01:11:08.611Z,91552.53
2023-08-17T01:14:07.299Z,91542.84
2023-08-17T01:16:47.093Z,91542.03
2023-08-17T01:19:22.269Z,91540.59
2023-08-17T01:21:51.486Z,91532.88
2023-08-17T01:24:18.173Z,91532.88
2023-08-17T01:26:45.526Z,91529.81
2023-08-17T01:29:12.429Z,91534.81
2023-08-17T01:31:48.602Z,91534.59
2023-08-17T01:34:20.567Z,91529.91
2023-08-17T01:36:57.287Z,91529.41
2023-08-17T01:39:28.480Z,91526.47
2023-08-17T01:41:58.469Z,91528.34
2023-08-17T01:44:27.149Z,91523.91
2023-08-17T01:46:54.500Z,91526.78
2023-08-17T01:49:21.322Z,91526.88
2023-08-17T01:51:47.996Z,91522.47
2023-08-17T01:54:14.911Z,91518.88
2023-08-17T01:56:41.626Z,91518.13
2023-08-17T01:59:08.314Z,91523.69
2023-08-17T02:01:35.030Z,91531.66
2023-08-17T02:04:03.340Z,91524.13
2023-08-17T02:06:30.580Z,91524.81
2023-08-17T02:08:57.268Z,91509.13
2023-08-17T02:11:23.955Z,91515.34
2023-08-17T02:13:50.656Z,91517.16
2023-08-17T02:16:17.385Z,91515.59
2023-08-17T02:18:44.174Z,91513.66
2023-08-17T02:21:10.965Z,91517.75
2023-08-17T02:23:37.626Z,91510.53
2023-08-17T02:26:04.323Z,91514.88
2023-08-17T02:28:31.245Z,91503.84
2023-08-17T02:30:59.419Z,91514.91
2023-08-17T02:33:26.185Z,91520.59
2023-08-17T02:35:53.488Z,91524.88
2023-08-17T02:38:20.239Z,91525.53
2023-08-17T02:40:47.007Z,91522.94
2023-08-17T02:43:13.737Z,91519.09
2023-08-17T02:45:40.514Z,91515.00
2023-08-17T02:48:07.468Z,91519.09
2023-08-17T02:50:34.226Z,91507.97
2023-08-17T02:53:01.346Z,91521.84
2023-08-17T02:55:27.979Z,91524.75
2023-08-17T02:57:54.661Z,91521.72
2023-08-17T03:00:21.412Z,91518.63
2023-08-17T03:02:48.151Z,91517.19
2023-08-17T03:05:14.855Z,91527.28
2023-08-17T03:07:41.636Z,91527.69
2023-08-17T03:10:08.593Z,91528.50
2023-08-17T03:12:35.374Z,91526.97
2023-08-17T03:15:02.694Z,91527.81
2023-08-17T03:17:29.574Z,91530.09
2023-08-17T03:19:56.367Z,91529.72
2023-08-17T03:22:23.499Z,91531.69
2023-08-17T03:24:50.242Z,91530.88
2023-08-17T03:27:17.041Z,91527.06
2023-08-17T03:29:43.776Z,91530.03
2023-08-17T03:32:10.516Z,91535.34
2023-08-17T03:34:37.203Z,91532.31
2023-08-17T03:37:05.010Z,91533.81
2023-08-17T03:39:32.108Z,91526.97
2023-08-17T03:41:58.780Z,91527.81
2023-08-17T03:44:25.557Z,91531.19
2023-08-17T03:46:52.289Z,91536.56
2023-08-17T03:49:18.991Z,91535.72
2023-08-17T03:51:45.715Z,91538.31
2023-08-17T03:54:13.945Z,91541.06
2023-08-17T03:56:40.668Z,91542.88
2023-08-17T03:59:07.877Z,91541.34
2023-08-17T04:01:34.664Z,91545.16
2023-08-17T04:04:01.400Z,91545.88
2023-08-17T04:06:28.186Z,91540.59
2023-08-17T04:08:54.885Z,91536.44
2023-08-17T04:11:21.561Z,91549.91
2023-08-17T04:13:48.298Z,91524.97
2023-08-17T04:16:15.026Z,91533.56
2023-08-17T04:18:41.721Z,91533.19
2023-08-17T04:21:08.383Z,91533.69
2023-08-17T04:23:35.053Z,91531.00
2023-08-17T04:26:01.835Z,91533.06
2023-08-17T04:28:28.561Z,91538.94
2023-08-17T04:30:55.813Z,91541.19
2023-08-17T04:33:22.529Z,91538.19
2023-08-17T04:35:49.435Z,91542.94
2023-08-17T04:38:16.099Z,91535.28
2023-08-17T04:40:43.040Z,91534.44
2023-08-17T04:43:11.758Z,91536.63
2023-08-17T04:45:39.093Z,91528.19
2023-08-17T04:48:07.316Z,91530.81
2023-08-17T04:50:34.258Z,91519.44
2023-08-17T04:53:01.015Z,91532.88
2023-08-17T04:55:27.741Z,91532.78
2023-08-17T04:57:54.512Z,91537.31
2023-08-17T05:00:26.620Z,91525.00
2023-08-17T05:02:53.366Z,91524.16
2023-08-17T05:05:20.323Z,91533.34
2023-08-17T05:07:47.055Z,91535.28
2023-08-17T05:10:13.797Z,91538.69
2023-08-17T05:12:40.571Z,91535.19
2023-08-17T05:15:10.953Z,91540.72
2023-08-17T05:17:38.129Z,91546.06
2023-08-17T05:20:05.976Z,91536.97
2023-08-17T05:22:32.650Z,91534.59
2023-08-17T05:24:59.332Z,91538.97
2023-08-17T05:27:26.268Z,91528.31
2023-08-17T05:29:53.228Z,91529.53
2023-08-17T05:32:19.896Z,91525.91
2023-08-17T05:34:48.209Z,91523.75
2023-08-17T05:37:16.468Z,91528.69
2023-08-17T05:39:43.188Z,91527.94
2023-08-17T05:42:11.090Z,91522.06
2023-08-17T05:44:41.701Z,91519.28
2023-08-17T05:47:08.468Z,91514.28
2023-08-17T05:49:35.211Z,91512.97
2023-08-17T05:52:02.257Z,91521.06
2023-08-17T05:54:28.990Z,91513.63
2023-08-17T05:56:56.170Z,91509.13
2023-08-17T05:59:22.997Z,91509.81
2023-08-17T06:01:49.842Z,91497.03
2023-08-17T06:04:16.505Z,91504.31
2023-08-17T06:06:43.313Z,91497.88
2023-08-17T06:09:10.650Z,91502.88
2023-08-17T06:11:37.420Z,91495.84
2023-08-17T06:14:04.366Z,91495.13
2023-08-17T06:16:31.134Z,91496.13
2023-08-17T06:18:57.892Z,91496.22
2023-08-17T06:21:24.709Z,91492.22
2023-08-17T06:23:51.404Z,91496.63
2023-08-17T06:26:18.088Z,91488.63
2023-08-17T06:28:45.053Z,91485.72
2023-08-17T06:31:11.766Z,91496.69
2023-08-17T06:33:38.527Z,91493.00
2023-08-17T06:36:05.557Z,91485.88
2023-08-17T06:38:32.244Z,91484.00
2023-08-17T06:40:59.004Z,91494.69
2023-08-17T06:43:25.863Z,91484.03
2023-08-17T06:45:52.572Z,91485.13
2023-08-17T06:48:19.350Z,91489.88
2023-08-17T06:50:46.054Z,91484.97
2023-08-17T06:53:12.728Z,91497.31
2023-08-17T06:55:39.514Z,91487.03
2023-08-17T06:58:06.367Z,91488.00
2023-08-17T07:00:36.616Z,91480.78
2023-08-17T07:03:05.125Z,91484.59
2023-08-17T07:05:32.011Z,91479.28
2023-08-17T07:07:59.790Z,91480.03
2023-08-17T07:10:26.958Z,91480.56
2023-08-17T07:12:54.267Z,91480.97
2023-08-17T07:15:21.121Z,91482.06
2023-08-17T07:17:47.898Z,91476.97
2023-08-17T07:20:17.144Z,91469.91
2023-08-17T07:22:45.205Z,91482.00
2023-08-17T07:25:11.993Z,91481.69
2023-08-17T07:27:38.722Z,91475.06
2023-08-17T07:30:05.969Z,91480.97
2023-08-17T07:32:33.637Z,91474.16
2023-08-17T07:35:00.445Z,91471.16
2023-08-17T07:37:34.198Z,91473.97
2023-08-17T07:40:01.119Z,91466.56
2023-08-17T07:42:28.202Z,91475.94
2023-08-17T07:44:55.086Z,91470.91
2023-08-17T07:47:21.805Z,91470.13
2023-08-17T07:49:49.694Z,91463.75
2023-08-17T07:52:17.524Z,91465.19
2023-08-17T07:54:44.334Z,91472.28
2023-08-17T07:57:11.196Z,91459.09
2023-08-17T07:59:38.016Z,91463.31
2023-08-17T08:02:04.880Z,91461.28
2023-08-17T08:04:31.685Z,91479.34
2023-08-17T08:06:59.299Z,91474.06
2023-08-17T08:09:26.046Z,91457.91
2023-08-17T08:11:52.868Z,91472.53
2023-08-17T08:14:19.664Z,91472.34
2023-08-17T08:16:46.389Z,91469.84
2023-08-17T08:19:14.393Z,91466.91
2023-08-17T08:21:41.113Z,91471.69
2023-08-17T08:24:17.615Z,91462.66
2023-08-17T08:26:45.143Z,91466.94
2023-08-17T08:29:11.899Z,91473.44
2023-08-17T08:31:38.654Z,91462.63
2023-08-17T08:34:05.953Z,91456.00
2023-08-17T08:36:32.624Z,91460.69
2023-08-17T08:38:59.483Z,91463.69
2023-08-17T08:41:28.421Z,91457.03
2023-08-17T08:43:55.643Z,91467.47
2023-08-17T08:46:26.675Z,91466.50
2023-08-17T08:48:54.310Z,91449.19
2023-08-17T08:51:27.838Z,91458.22
2023-08-17T08:54:03.446Z,91441.41
2023-08-17T08:56:34.170Z,91456.03
2023-08-17T08:59:04.181Z,91454.56
2023-08-17T09:01:32.738Z,91453.72
2023-08-17T09:04:03.998Z,91448.38
2023-08-17T09:06:31.886Z,91451.06
2023-08-17T09:08:59.112Z,91442.19
2023-08-17T09:11:25.830Z,91445.97
2023-08-17T09:13:54.159Z,91450.91
2023-08-17T09:16:22.917Z,91441.81
2023-08-17T09:18:54.412Z,91435.13
2023-08-17T09:21:23.353Z,91436.84
2023-08-17T09:24:00.281Z,91431.63
2023-08-17T09:26:33.384Z,91431.94
2023-08-17T09:29:01.486Z,91433.66
2023-08-17T09:31:32.001Z,91430.97
2023-08-17T09:33:58.730Z,91434.88
2023-08-17T09:36:27.310Z,91427.28
2023-08-17T09:38:54.112Z,91436.59
2023-08-17T09:41:21.226Z,91432.19
2023-08-17T09:43:48.864Z,91443.97
2023-08-17T09:46:16.233Z,91433.41
2023-08-17T09:48:46.634Z,91426.78
2023-08-17T09:51:16.926Z,91427.25
2023-08-17T09:53:43.924Z,91438.81
2023-08-17T09:58:44.750Z,91430.22
2023-08-17T10:01:12.315Z,91422.56
2023-08-17T10:03:43.304Z,91410.25
2023-08-17T10:06:12.358Z,91424.25
2023-08-17T10:08:48.141Z,91418.56
2023-08-17T10:11:20.060Z,91420.28
2023-08-17T10:13:57.939Z,91419.31
2023-08-17T10:16:32.727Z,91419.31
2023-08-17T10:19:19.204Z,91421.03
2023-08-17T10:21:51.971Z,91411.75
2023-08-17T10:24:20.762Z,91410.28
2023-08-17T10:26:48.326Z,91406.34
2023-08-17T10:29:17.729Z,91412.69
2023-08-17T10:31:48.911Z,91405.25
2023-08-17T10:34:16.608Z,91398.50
2023-08-17T10:36:44.013Z,91400.59
2023-08-17T10:39:23.839Z,91401.91
2023-08-17T10:41:53.674Z,91396.97
2023-08-17T10:44:39.635Z,91398.09
2023-08-17T10:50:06.552Z,91399.34
2023-08-17T10:52:35.157Z,91404.06
2023-08-17T10:55:13.779Z,91399.09
2023-08-17T10:57:44.762Z,91404.41
2023-08-17T11:00:29.180Z,91396.34
2023-08-17T11:03:07.007Z,91389.00
2023-08-17T11:05:55.042Z,91391.69
2023-08-17T11:08:22.713Z,91388.19
2023-08-17T11:11:13.535Z,91388.97
2023-08-17T11:13:45.523Z,91389.81
2023-08-17T11:16:17.980Z,91391.59
2023-08-17T11:18:45.860Z,91391.06
2023-08-17T11:21:19.406Z,91384.13
2023-08-17T11:23:46.706Z,91378.16
2023-08-17T11:26:17.065Z,91380.88
2023-08-17T11:28:46.075Z,91376.75
2023-08-17T11:31:15.140Z,91384.56
2023-08-17T11:33:43.608Z,91369.38
2023-08-17T11:36:11.280Z,91378.25
2023-08-17T11:38:43.466Z,91366.81
2023-08-17T11:41:11.137Z,91369.78
2023-08-17T11:43:45.563Z,91377.75
2023-08-17T11:46:13.556Z,91385.03
2023-08-17T11:48:40.499Z,91380.38
2023-08-17T11:51:07.271Z,91377.41
2023-08-17T11:53:35.824Z,91382.22
2023-08-17T11:56:06.717Z,91373.47
2023-08-17T11:58:45.586Z,91377.50
2023-08-17T12:01:13.950Z,91372.63
2023-08-17T12:03:42.792Z,91372.44
2023-08-17T12:06:10.856Z,91368.03
2023-08-17T12:08:37.650Z,91367.28
2023-08-17T12:11:05.238Z,91365.66
2023-08-17T12:13:35.125Z,91352.31
2023-08-17T12:16:02.441Z,91359.25
2023-08-17T12:18:29.277Z,91351.84
2023-08-17T12:20:56.851Z,91351.78
2023-08-17T12:23:23.751Z,91333.88
2023-08-17T12:25:55.125Z,91339.75
2023-08-17T12:28:23.274Z,91341.34
2023-08-17T12:31:01.782Z,91343.69
2023-08-17T12:33:28.926Z,91337.66
2023-08-17T12:35:56.283Z,91337.31
2023-08-17T12:38:25.495Z,91326.81
2023-08-17T12:40:52.394Z,91341.06
2023-08-17T12:43:19.119Z,91341.03
2023-08-17T12:45:45.813Z,91334.25
2023-08-17T12:48:12.697Z,91336.13
2023-08-17T12:53:09.254Z,91335.91
2023-08-17T12:55:36.214Z,91343.88
2023-08-17T12:58:03.184Z,91334.81
2023-08-17T13:00:29.948Z,91344.19
2023-08-17T13:02:56.758Z,91345.53
2023-08-17T13:05:24.065Z,91339.47
2023-08-17T13:07:50.808Z,91339.53
2023-08-17T13:10:17.643Z,91343.69
2023-08-17T13:12:44.328Z,91345.41
2023-08-17T13:15:11.072Z,91338.75
2023-08-17T13:17:37.897Z,91346.94
2023-08-17T13:20:06.850Z,91355.09
2023-08-17T13:22:33.728Z,91348.59
2023-08-17T13:25:00.545Z,91359.19
2023-08-17T13:27:28.370Z,91350.16
2023-08-17T13:29:55.153Z,91358.47
2023-08-17T13:32:22.032Z,91354.44
2023-08-17T13:34:48.793Z,91354.69
2023-08-17T13:37:15.505Z,91351.22
2023-08-17T13:39:42.258Z,91348.28
2023-08-17T13:42:08.937Z,91358.59
2023-08-17T13:44:35.775Z,91346.72
2023-08-17T13:47:02.556Z,91360.88
2023-08-17T13:49:29.362Z,91359.09
2023-08-17T13:51:57.634Z,91359.63
2023-08-17T13:54:25.232Z,91355.72
2023-08-17T13:56:52.651Z,91359.03
2023-08-17T13:59:19.349Z,91365.50
2023-08-17T14:01:46.193Z,91359.59
2023-08-17T14:04:13.606Z,91355.59
2023-08-17T14:06:40.934Z,91368.53
2023-08-17T14:09:07.987Z,91354.53
2023-08-17T14:11:34.821Z,91356.34
2023-08-17T14:14:01.646Z,91356.63
2023-08-17T14:16:28.464Z,91355.41
2023-08-17T14:18:55.894Z,91348.47
2023-08-17T14:21:22.719Z,91357.28
2023-08-17T14:23:50.556Z,91350.84
2023-08-17T14:26:17.218Z,91348.84
2023-08-17T14:28:46.283Z,91359.56
2023-08-17T14:31:17.114Z,91349.97
2023-08-17T14:33:44.681Z,91348.25
2023-08-17T14:36:11.392Z,91355.06
2023-08-17T14:38:38.351Z,91361.22
2023-08-17T14:41:07.613Z,91353.38
2023-08-17T14:43:34.249Z,91359.81
2023-08-17T14:46:01.151Z,91358.38
2023-08-17T14:48:28.080Z,91369.66
2023-08-17T14:50:54.818Z,91369.19
2023-08-17T14:53:21.563Z,91369.66
2023-08-17T14:55:50.678Z,91368.66
2023-08-17T14:58:17.576Z,91370.66
2023-08-17T15:00:44.375Z,91370.16
2023-08-17T15:03:11.231Z,91367.00
2023-08-17T15:05:38.589Z,91371.91
2023-08-17T15:08:05.904Z,91373.13
2023-08-17T15:10:33.846Z,91378.72
2023-08-17T15:13:00.610Z,91382.13
2023-08-17T15:15:27.418Z,91381.41
2023-08-17T15:17:54.144Z,91375.53
2023-08-17T15:20:20.912Z,91383.88
2023-08-17T15:22:48.886Z,91391.25
2023-08-17T15:25:17.270Z,91380.66
2023-08-17T15:27:44.150Z,91385.81
2023-08-17T15:30:11.276Z,91384.28
2023-08-17T15:32:37.989Z,91386.19
2023-08-17T15:35:05.105Z,91379.31
2023-08-17T15:37:31.952Z,91387.56
2023-08-17T15:39:58.707Z,91393.75
2023-08-17T15:42:32.341Z,91380.66
2023-08-17T15:44:59.111Z,91381.41
2023-08-17T15:47:26.290Z,91378.94
2023-08-17T15:49:54.060Z,91383.25
2023-08-17T15:52:20.758Z,91385.22
2023-08-17T15:54:47.429Z,91384.38
2023-08-17T15:57:14.218Z,91382.13
2023-08-17T15:59:41.052Z,91381.09
2023-08-17T16:02:08.231Z,91385.75
2023-08-17T16:04:35.037Z,91384.63
2023-08-17T16:07:06.105Z,91382.81
2023-08-17T16:09:32.841Z,91386.91
2023-08-17T16:11:59.622Z,91384.47
2023-08-17T16:14:26.964Z,91390.94
2023-08-17T16:16:56.578Z,91395.13
2023-08-17T16:19:24.207Z,91397.59
2023-08-17T16:21:51.035Z,91393.97
2023-08-17T16:24:17.794Z,91392.22
2023-08-17T16:26:44.751Z,91401.69
2023-08-17T16:29:11.469Z,91399.72
2023-08-17T16:31:39.040Z,91398.94
2023-08-17T16:34:05.846Z,91397.84
2023-08-17T16:36:36.421Z,91403.97
2023-08-17T16:39:04.092Z,91407.63
2023-08-17T16:41:30.879Z,91400.66
2023-08-17T16:43:57.550Z,91405.06
2023-08-17T16:46:24.399Z,91404.38
2023-08-17T16:48:51.197Z,91417.16
2023-08-17T16:51:17.970Z,91417.31
2023-08-17T16:53:50.838Z,91423.84
2023-08-17T16:56:17.892Z,91422.38
2023-08-17T16:58:44.636Z,91425.28
2023-08-17T17:01:14.914Z,91424.09
2023-08-17T17:03:43.148Z,91435.53
2023-08-17T17:06:10.160Z,91426.72
2023-08-17T17:08:36.907Z,91429.06
2023-08-17T17:11:04.268Z,91429.25
2023-08-17T17:13:31.172Z,91436.94
2023-08-17T17:15:58.007Z,91445.66
2023-08-17T17:18:29.477Z,91444.28
2023-08-17T17:20:56.283Z,91448.72
2023-08-17T17:23:23.514Z,91449.38
2023-08-17T17:25:50.193Z,91452.63
2023-08-17T17:28:16.866Z,91458.00
2023-08-17T17:30:43.643Z,91471.56
2023-08-17T17:33:10.461Z,91469.69
2023-08-17T17:35:37.350Z,91473.66
2023-08-17T17:38:04.178Z,91477.13
2023-08-17T17:40:31.008Z,91478.63
2023-08-17T17:42:57.677Z,91476.19
2023-08-17T17:45:25.538Z,91474.44
2023-08-17T17:47:52.406Z,91480.69
2023-08-17T17:50:19.181Z,91483.19
2023-08-17T17:52:48.609Z,91493.66
2023-08-17T17:55:15.646Z,91498.72
2023-08-17T17:57:42.390Z,91496.34
2023-08-17T18:00:11.385Z,91501.34
2023-08-17T18:02:38.239Z,91509.81
2023-08-17T18:05:05.524Z,91517.59
2023-08-17T18:07:32.262Z,91507.47
2023-08-17T18:09:58.980Z,91515.50
2023-08-17T18:12:28.945Z,91521.03
2023-08-17T18:15:00.546Z,91521.97
2023-08-17T18:17:27.938Z,91526.47
2023-08-17T18:19:54.864Z,91527.78
2023-08-17T18:22:22.054Z,91529.78
2023-08-17T18:24:48.901Z,91531.84
2023-08-17T18:27:15.575Z,91532.16
2023-08-17T18:29:42.332Z,91536.94
2023-08-17T18:32:09.016Z,91527.56
2023-08-17T18:34:35.698Z,91535.19
2023-08-17T18:37:03.675Z,91543.56
2023-08-17T18:39:30.382Z,91544.03
2023-08-17T18:41:57.091Z,91552.38
2023-08-17T18:44:23.777Z,91553.44
2023-08-17T18:46:50.439Z,91544.47
2023-08-17T18:49:17.149Z,91554.75
2023-08-17T18:51:43.899Z,91552.25
2023-08-17T18:54:11.009Z,91556.09
2023-08-17T18:56:37.731Z,91551.47
2023-08-17T18:59:04.719Z,91547.47
2023-08-17T19:01:31.498Z,91553.72
2023-08-17T19:03:58.303Z,91547.16
2023-08-17T19:06:25.023Z,91557.00
2023-08-17T19:08:51.679Z,91561.91
2023-08-17T19:11:18.325Z,91561.59
2023-08-17T19:13:45.020Z,91558.59
2023-08-17T19:16:11.778Z,91565.00
2023-08-17T19:18:38.528Z,91561.75
2023-08-17T19:21:05.401Z,91566.50
2023-08-17T19:23:32.105Z,91563.75
2023-08-17T19:25:58.784Z,91564.50
2023-08-17T19:28:25.526Z,91563.25
2023-08-17T19:30:52.229Z,91561.63
2023-08-17T19:33:18.909Z,91572.00
2023-08-17T19:35:46.371Z,91572.09
2023-08-17T19:38:13.156Z,91572.56
2023-08-17T19:40:40.463Z,91570.44
2023-08-17T19:43:08.053Z,91572.22
2023-08-17T19:45:35.474Z,91574.16
2023-08-17T19:48:02.259Z,91572.81
2023-08-17T19:50:29.180Z,91574.41
2023-08-17T19:52:55.985Z,91574.72
2023-08-17T19:55:22.716Z,91566.25
2023-08-17T19:57:49.477Z,91571.91
2023-08-17T20:00:16.498Z,91578.22
2023-08-17T20:02:43.333Z,91572.63
2023-08-17T20:05:10.402Z,91572.94
2023-08-17T20:07:37.901Z,91569.44
2023-08-17T20:10:05.724Z,91574.63
2023-08-17T20:12:32.648Z,91572.06
2023-08-17T20:14:59.484Z,91572.00
2023-08-17T20:17:26.456Z,91568.63
2023-08-17T20:19:53.653Z,91575.81
2023-08-17T20:22:20.399Z,91580.84
2023-08-17T20:24:47.102Z,91574.25
2023-08-17T20:27:13.978Z,91567.06
2023-08-17T20:29:40.760Z,91571.03
2023-08-17T20:32:07.966Z,91578.41
2023-08-17T20:34:34.725Z,91578.97
2023-08-17T20:37:01.447Z,91577.28
2023-08-17T20:39:29.105Z,91578.44
2023-08-17T20:41:56.144Z,91582.84
2023-08-17T20:44:22.867Z,91576.97
2023-08-17T20:46:50.032Z,91579.31
2023-08-17T20:49:17.345Z,91577.84
2023-08-17T20:51:45.645Z,91573.16
2023-08-17T20:54:12.385Z,91581.16
2023-08-17T20:56:39.235Z,91583.22
2023-08-17T20:59:05.969Z,91583.84
2023-08-17T21:01:32.811Z,91584.31
2023-08-17T21:03:59.765Z,91589.00
2023-08-17T21:06:26.644Z,91580.75
2023-08-17T21:08:53.381Z,91586.53
2023-08-17T21:11:20.335Z,91585.47
2023-08-17T21:13:47.313Z,91586.41
2023-08-17T21:16:14.606Z,91576.69
2023-08-17T21:18:41.351Z,91581.06
2023-08-17T21:21:08.070Z,91590.34
2023-08-17T21:23:35.277Z,91582.03
2023-08-17T21:26:02.819Z,91581.47
2023-08-17T21:28:29.616Z,91586.16
2023-08-17T21:31:03.865Z,91587.41
2023-08-17T21:33:30.979Z,91573.09
2023-08-17T21:35:58.952Z,91584.31
2023-08-17T21:38:25.973Z,91587.63
2023-08-17T21:41:00.914Z,91584.97
2023-08-17T21:43:28.357Z,91586.66
2023-08-17T21:45:59.999Z,91581.19
2023-08-17T21:48:27.822Z,91580.75
2023-08-17T21:50:54.850Z,91577.84
2023-08-17T21:53:22.301Z,91580.66
2023-08-17T21:55:50.784Z,91570.88
2023-08-17T21:58:19.759Z,91574.84
2023-08-17T22:00:47.718Z,91580.34
2023-08-17T22:03:16.018Z,91579.50
2023-08-17T22:05:47.034Z,91572.19
2023-08-17T22:08:14.892Z,91576.19
2023-08-17T22:10:42.979Z,91570.75
2023-08-17T22:13:09.787Z,91572.81
2023-08-17T22:15:36.458Z,91578.47
2023-08-17T22:18:03.300Z,91572.44
2023-08-17T22:20:30.100Z,91582.44
2023-08-17T22:22:56.814Z,91587.41
2023-08-17T22:25:23.735Z,91585.94
2023-08-17T22:27:50.509Z,91581.38
2023-08-17T22:30:17.298Z,91572.63
2023-08-17T22:32:44.149Z,91585.19
2023-08-17T22:35:11.752Z,91576.59
2023-08-17T22:37:38.838Z,91575.06
2023-08-17T22:40:07.420Z,91580.91
2023-08-17T22:42:34.324Z,91585.56
2023-08-17T22:45:01.038Z,91581.13
2023-08-17T22:47:28.300Z,91589.13
2023-08-17T22:49:55.853Z,91583.88
2023-08-17T22:52:22.699Z,91579.09
2023-08-17T22:54:49.859Z,91589.25
2023-08-17T22:57:16.840Z,91587.22
2023-08-17T22:59:43.808Z,91586.59
2023-08-17T23:02:10.554Z,91579.56
2023-08-17T23:04:37.365Z,91583.81
2023-08-17T23:07:04.035Z,91582.06
2023-08-17T23:09:32.938Z,91576.38
2023-08-17T23:11:59.756Z,91577.78
2023-08-17T23:14:26.505Z,91577.59
2023-08-17T23:16:53.232Z,91578.69
2023-08-17T23:19:19.965Z,91582.19
2023-08-17T23:21:46.685Z,91576.63
2023-08-17T23:24:13.389Z,91574.16
2023-08-17T23:26:40.311Z,91574.16
2023-08-17T23:29:08.824Z,91579.03
2023-08-17T23:31:35.615Z,91569.59
2023-08-17T23:34:02.378Z,91567.09
2023-08-17T23:36:29.096Z,91577.75
2023-08-17T23:38:55.833Z,91570.38
2023-08-17T23:41:22.544Z,91571.59
2023-08-17T23:43:49.208Z,91573.66
2023-08-17T23:46:15.896Z,91569.50
2023-08-17T23:48:42.684Z,91572.22
2023-08-17T23:51:09.482Z,91570.19
2023-08-17T23:53:36.184Z,91578.28
2023-08-17T23:56:04.293Z,91584.38
2023-08-17T23:58:30.968Z,91579.25
